Stena Germanica — SKPZ — position and weather

sailwx.info

Track history (hours):
 
Tides and Currents Weather Stations Pressure Air Temp Water Temp Dewpoint Dewpoint Depression Visibility Wind Speed Wind Dir Waves Ship Positions

Stena Germanica

Last reported at 2017-May-23 06:28 UTC. Time now 2017-May-23 06:56 UTC.
Position N 56°10' E 015°38'.

Length 176 m; draft 6.8 m.

Type: Ship (hazmat cat A). MMSI: 265292000.

Date/timePositionNaut miles runAvg speedWind from/ knotsBaromVisibWave heightAir tempDewpointWater temp
2017-May-23 06:28N 56°10' E 015°38'0 0.0
2017-May-23 05:58N 56°10' E 015°38'0 0.0
2017-May-23 05:28N 56°10' E 015°38'0 0.0
2017-May-23 05:00N 56°10' E 015°38'5 9.7
2017-May-23 04:30N 56°06' E 015°34'613.0
2017-May-23 04:01N 56°01' E 015°42'713.9
2017-May-23 03:31N 55°57' E 015°53'714.4
2017-May-23 03:00N 55°53' E 016°03'714.9
2017-May-23 02:31N 55°49' E 016°15'715.0
2017-May-23 02:01N 55°45' E 016°26'714.7
2017-May-23 01:31N 55°41' E 016°37'814.7
2017-May-23 00:56N 55°37' E 016°50'714.3
2017-May-23 00:27N 55°34' E 017°00'714.1
2017-May-22 23:59N 55°30' E 017°10'814.3
2017-May-22 23:23N 55°26' E 017°23'615.0
2017-May-22 22:58N 55°22' E 017°32'715.1
2017-May-22 22:28N 55°18' E 017°43'715.1
2017-May-22 22:01N 55°13' E 017°52'1015.0
2017-May-22 21:19N 55°07' E 018°07'514.9
2017-May-22 21:00N 55°05' E 018°14'714.9
2017-May-22 20:31N 55°00' E 018°24'714.7
2017-May-22 20:01N 54°56' E 018°35'714.5
2017-May-22 19:31N 54°51' E 018°43'714.5
2017-May-22 19:01N 54°45' E 018°51'714.6
2017-May-22 18:31N 54°38' E 018°57'715.0
2017-May-22 18:01N 54°32' E 018°49'714.8
2017-May-22 17:30N 54°32' E 018°36'4 7.2
2017-May-22 17:00N 54°33' E 018°30'0 0.0
2017-May-22 16:28N 54°33' E 018°30'0 0.0
2017-May-22 15:58N 54°33' E 018°30'0 0.0
2017-May-22 15:28N 54°33' E 018°30'0 0.0
2017-May-22 14:58N 54°33' E 018°30'0 0.0
2017-May-22 13:58N 54°33' E 018°30'0 0.0
2017-May-22 13:28N 54°33' E 018°30'0 0.0
2017-May-22 12:58N 54°33' E 018°30'0 0.0
2017-May-22 12:28N 54°33' E 018°30'0 0.0
2017-May-22 11:58N 54°33' E 018°30'0 0.0
2017-May-22 11:28N 54°33' E 018°30'0 0.0
2017-May-22 10:58N 54°33' E 018°30'0 0.0
2017-May-22 10:28N 54°33' E 018°30'0 0.0
2017-May-22 09:58N 54°33' E 018°30'0 0.0
2017-May-22 09:28N 54°33' E 018°30'0 0.0
2017-May-22 08:58N 54°33' E 018°30'0 0.0
2017-May-22 08:22N 54°33' E 018°30'0 0.0
2017-May-22 07:58N 54°33' E 018°30'0 0.0
2017-May-22 07:28N 54°33' E 018°30'0 0.0
2017-May-22 07:00N 54°33' E 018°30'2 3.5
2017-May-22 06:30N 54°32' E 018°33'612.2
2017-May-22 06:00N 54°32' E 018°44'613.0
2017-May-22 05:30N 54°36' E 018°53'713.6
2017-May-22 05:00N 54°43' E 018°54'714.8
2017-May-22 04:30N 54°48' E 018°46'714.9
2017-May-22 04:00N 54°54' E 018°38'714.7
2017-May-22 03:30N 54°59' E 018°29'714.9
2017-May-22 03:00N 55°03' E 018°18'815.1
2017-May-22 02:30N 55°07' E 018°07'815.2
2017-May-22 02:00N 55°12' E 017°56'815.2
2017-May-22 01:30N 55°16' E 017°44'815.5
2017-May-22 01:00N 55°20' E 017°33'715.0
2017-May-22 00:30N 55°24' E 017°22'814.5
2017-May-21 23:56N 55°28' E 017°10'814.5
2017-May-21 23:24N 55°32' E 016°58'614.6
2017-May-21 22:59N 55°36' E 016°49'715.0
2017-May-21 22:30N 55°40' E 016°38'815.1
2017-May-21 22:00N 55°44' E 016°27'714.9
2017-May-21 21:30N 55°48' E 016°16'714.9
2017-May-21 21:00N 55°52' E 016°05'815.0
2017-May-21 20:30N 55°57' E 015°54'815.0
2017-May-21 20:00N 56°01' E 015°43'714.0
2017-May-21 19:30N 56°05' E 015°34'5 9.8
2017-May-21 19:00N 56°10' E 015°38'0 0.0
2017-May-21 18:29N 56°10' E 015°38'0 0.0
2017-May-21 18:01N 56°10' E 015°38'4 8.5
2017-May-21 17:30N 56°06' E 015°34'714.6
2017-May-21 17:00N 56°01' E 015°43'816.2
2017-May-21 16:30N 55°56' E 015°55'816.4
2017-May-21 16:00N 55°52' E 016°08'816.5
2017-May-21 15:30N 55°47' E 016°20'816.4
2017-May-21 15:00N 55°43' E 016°32'816.0
2017-May-21 14:30N 55°38' E 016°43'1615.9
2017-May-21 13:30N 55°29' E 017°07'816.0
2017-May-21 13:00N 55°25' E 017°19'816.4
2017-May-21 12:30N 55°21' E 017°31'816.5
2017-May-21 12:00N 55°16' E 017°43'816.7
2017-May-21 11:30N 55°11' E 017°56'916.8
2017-May-21 10:59N 55°07' E 018°08'816.7
2017-May-21 10:30N 55°02' E 018°20'816.8
2017-May-21 10:00N 54°58' E 018°32'816.5
2017-May-21 09:30N 54°52' E 018°42'816.8
2017-May-21 09:00N 54°45' E 018°52'815.1
2017-May-21 08:30N 54°38' E 018°57'816.2
2017-May-21 08:00N 54°32' E 018°48'714.4
2017-May-21 07:31N 54°32' E 018°36'3 5.8
2017-May-21 06:55N 54°33' E 018°30'0 0.0
2017-May-21 06:28N 54°33' E 018°30'0 0.0
2017-May-21 05:55N 54°33' E 018°30'0 0.0
2017-May-21 05:30N 54°33' E 018°30'2 3.1
2017-May-21 05:00N 54°32' E 018°33'713.1
2017-May-21 04:30N 54°32' E 018°44'815.2
2017-May-21 04:00N 54°37' E 018°54'815.1
2017-May-21 03:30N 54°45' E 018°51'817.0
2017-May-21 03:00N 54°51' E 018°42'917.5
2017-May-21 02:30N 54°58' E 018°32'917.5
2017-May-21 02:00N 55°03' E 018°19'1117.5
2017-May-21 01:24N 55°09' E 018°04'2517.6
2017-May-20 23:57N 55°23' E 017°27'1316.9
2017-May-20 23:09N 55°30' E 017°07'316.8
2017-May-20 23:00N 55°32' E 017°03'816.8
2017-May-20 22:30N 55°36' E 016°51'917.3
2017-May-20 21:59N 55°41' E 016°37'917.7
2017-May-20 21:31N 55°46' E 016°25'917.5
2017-May-20 21:01N 55°50' E 016°11'917.5
2017-May-20 20:30N 55°55' E 015°58'917.3
2017-May-20 20:00N 55°60' E 015°45'816.0
2017-May-20 19:30N 56°05' E 015°34'610.4
2017-May-20 18:59N 56°10' E 015°38'0 0.5
2017-May-20 18:29N 56°10' E 015°38'0 0.0
2017-May-20 17:59N 56°10' E 015°38'0 0.0
2017-May-20 17:30N 56°10' E 015°38'5 9.5
2017-May-20 17:00N 56°06' E 015°34'714.8
2017-May-20 16:30N 56°01' E 015°44'816.1
2017-May-20 16:00N 55°56' E 015°55'816.3
2017-May-20 15:30N 55°51' E 016°07'816.4
2017-May-20 15:00N 55°47' E 016°19'816.2
2017-May-20 14:30N 55°43' E 016°32'1816.5
2017-May-20 13:26N 55°33' E 016°58'4716.8
2017-May-20 10:38N 55°07' E 018°07'216.7
2017-May-20 10:30N 55°06' E 018°10'816.5
2017-May-20 10:00N 55°02' E 018°22'816.8
2017-May-20 09:30N 54°56' E 018°34'917.2
2017-May-20 09:00N 54°50' E 018°44'917.8
2017-May-20 08:30N 54°43' E 018°54'815.9
2017-May-20 08:00N 54°35' E 018°54'816.0
2017-May-20 07:30N 54°32' E 018°41'611.1
2017-May-20 07:00N 54°32' E 018°32'1 2.1
2017-May-20 06:29N 54°33' E 018°30'0 0.0
2017-May-20 05:59N 54°33' E 018°30'0 0.0
2017-May-20 05:30N 54°33' E 018°30'2 3.1
2017-May-20 05:00N 54°32' E 018°33'612.2
2017-May-20 04:30N 54°32' E 018°43'713.7
2017-May-20 04:00N 54°36' E 018°53'713.7
2017-May-20 03:30N 54°43' E 018°54'815.1
2017-May-20 03:00N 54°49' E 018°46'715.0
2017-May-20 02:30N 54°54' E 018°37'815.1
2017-May-20 02:00N 54°60' E 018°28'715.0
2017-May-20 01:30N 55°04' E 018°17'815.0
2017-May-20 01:00N 55°08' E 018°06'714.9
2017-May-20 00:30N 55°12' E 017°55'815.1
2017-May-20 00:00N 55°16' E 017°44'3014.8
2017-May-19 21:59N 55°32' E 016°59'714.6
2017-May-19 21:30N 55°36' E 016°49'815.0
2017-May-19 21:00N 55°40' E 016°38'815.2
2017-May-19 20:30N 55°44' E 016°27'815.2
2017-May-19 20:00N 55°49' E 016°16'715.0
2017-May-19 19:30N 55°53' E 016°05'714.9
2017-May-19 19:00N 55°57' E 015°54'714.9
2017-May-19 18:30N 56°01' E 015°42'713.2
2017-May-19 18:00N 56°06' E 015°34'5 9.2
2017-May-19 17:30N 56°10' E 015°38'0 0.0
2017-May-19 17:00N 56°10' E 015°38'0 0.0
2017-May-19 16:30N 56°10' E 015°38'0 0.0
2017-May-19 16:00N 56°10' E 015°38'0 0.0
2017-May-19 15:30N 56°10' E 015°38'0 0.0
2017-May-19 15:00N 56°10' E 015°38'0 0.0
2017-May-19 14:00N 56°10' E 015°38'0 0.0
2017-May-19 13:30N 56°10' E 015°38'0 0.0
2017-May-19 13:00N 56°10' E 015°38'0 0.0
2017-May-19 12:30N 56°10' E 015°38'0 0.0
2017-May-19 12:00N 56°10' E 015°38'0 0.0
2017-May-19 11:30N 56°10' E 015°38'0 0.0
2017-May-19 11:00N 56°10' E 015°38'0 0.0
2017-May-19 10:30N 56°10' E 015°38'0 0.0
2017-May-19 10:00N 56°10' E 015°38'0 0.0
2017-May-19 09:30N 56°10' E 015°38'0 0.0
2017-May-19 09:00N 56°10' E 015°38'0 0.0
2017-May-19 08:30N 56°10' E 015°38'0 0.0
2017-May-19 08:00N 56°10' E 015°38'0 0.0
2017-May-19 07:30N 56°10' E 015°38'0 0.0
2017-May-19 07:00N 56°10' E 015°38'5 9.7
2017-May-19 06:31N 56°06' E 015°34'713.1
2017-May-19 06:00N 56°01' E 015°42'714.1
2017-May-19 05:31N 55°57' E 015°53'714.3
2017-May-19 05:00N 55°53' E 016°04'714.5
2017-May-19 04:30N 55°49' E 016°14'714.4
2017-May-19 04:01N 55°45' E 016°25'714.3
2017-May-19 03:30N 55°41' E 016°35'714.4
2017-May-19 03:00N 55°37' E 016°46'714.4
2017-May-19 02:30N 55°33' E 016°57'714.4
2017-May-19 02:00N 55°29' E 017°07'714.5
2017-May-19 01:30N 55°25' E 017°18'714.4
2017-May-19 01:00N 55°21' E 017°29'714.5
2017-May-19 00:30N 55°17' E 017°39'714.7
2017-May-19 00:00N 55°13' E 017°50'714.5
2017-May-18 23:30N 55°09' E 018°01'714.4
2017-May-18 23:00N 55°05' E 018°11'714.5
2017-May-18 22:31N 55°01' E 018°22'714.3
2017-May-18 22:01N 54°57' E 018°32'714.5
2017-May-18 21:30N 54°52' E 018°41'714.7
2017-May-18 21:00N 54°46' E 018°49'714.5
2017-May-18 20:30N 54°41' E 018°57'714.5
2017-May-18 20:00N 54°34' E 018°52'612.7
2017-May-18 19:31N 54°32' E 018°42'611.2
2017-May-18 19:00N 54°32' E 018°32'1 2.8
2017-May-18 18:30N 54°33' E 018°30'0 0.0
2017-May-18 18:00N 54°33' E 018°30'0 0.0
2017-May-18 17:30N 54°33' E 018°30'1 2.7
2017-May-18 17:00N 54°32' E 018°32'612.3
2017-May-18 16:31N 54°32' E 018°43'714.8
2017-May-18 16:01N 54°36' E 018°53'714.5
2017-May-18 15:30N 54°44' E 018°53'816.4
2017-May-18 15:01N 54°50' E 018°43'1616.0
2017-May-18 14:00N 55°02' E 018°24'815.8
2017-May-18 13:30N 55°06' E 018°13'816.0
2017-May-18 13:00N 55°10' E 018°01'3016.0
2017-May-18 11:06N 55°26' E 017°15'315.7
2017-May-18 10:54N 55°28' E 017°11'615.7
2017-May-18 10:30N 55°31' E 017°01'815.8
2017-May-18 10:01N 55°35' E 016°49'816.2
2017-May-18 09:30N 55°39' E 016°36'816.8
2017-May-18 09:00N 55°43' E 016°23'816.5
2017-May-18 08:30N 55°47' E 016°11'816.6
2017-May-18 08:01N 55°53' E 016°00'816.5
2017-May-18 07:30N 55°58' E 015°49'816.5
2017-May-18 07:01N 56°03' E 015°37'612.4
2017-May-18 06:30N 56°09' E 015°37'1 2.4
2017-May-18 05:58N 56°10' E 015°38'0 0.0
2017-May-18 05:28N 56°10' E 015°38'0 0.0
2017-May-18 05:00N 56°10' E 015°38'4 7.5
2017-May-18 04:30N 56°07' E 015°35'714.4
2017-May-18 04:00N 56°01' E 015°43'917.2
2017-May-18 03:30N 55°57' E 015°56'917.3
2017-May-18 03:00N 55°53' E 016°10'917.4
2017-May-18 02:30N 55°48' E 016°22'917.3
2017-May-18 02:00N 55°43' E 016°35'917.2
2017-May-18 01:30N 55°38' E 016°47'917.1
2017-May-18 01:00N 55°33' E 016°59'917.2
2017-May-18 00:30N 55°28' E 017°12'2617.2
2017-May-17 22:59N 55°13' E 017°50'917.1
2017-May-17 22:27N 55°08' E 018°03'817.2
2017-May-17 22:00N 55°04' E 018°15'917.2
2017-May-17 21:30N 54°59' E 018°27'917.0
2017-May-17 21:00N 54°54' E 018°39'917.4
2017-May-17 20:30N 54°48' E 018°49'917.0
2017-May-17 20:00N 54°41' E 018°58'917.3
2017-May-17 19:30N 54°33' E 018°51'815.8
2017-May-17 19:00N 54°32' E 018°38'4 8.4
2017-May-17 18:30N 54°33' E 018°30'0 0.1
2017-May-17 17:59N 54°33' E 018°30'0 0.0
2017-May-17 17:29N 54°33' E 018°30'0 0.0
2017-May-17 17:00N 54°33' E 018°30'2 3.1
2017-May-17 16:30N 54°32' E 018°33'612.9
2017-May-17 16:01N 54°32' E 018°44'815.5
2017-May-17 15:31N 54°37' E 018°54'714.7
2017-May-17 15:01N 54°44' E 018°51'1716.8
2017-May-17 14:01N 54°57' E 018°33'816.9
2017-May-17 13:31N 55°02' E 018°21'916.9
2017-May-17 12:58N 55°07' E 018°07'5116.9
2017-May-17 09:58N 55°35' E 016°53'817.2
2017-May-17 09:30N 55°40' E 016°41'917.5
2017-May-17 09:00N 55°44' E 016°28'917.5
2017-May-17 08:30N 55°49' E 016°15'917.8
2017-May-17 08:00N 55°54' E 016°01'917.7
2017-May-17 07:31N 55°59' E 015°49'917.4
2017-May-17 07:01N 56°03' E 015°35'612.3
2017-May-17 06:30N 56°10' E 015°37'1 1.0
2017-May-17 05:59N 56°10' E 015°38'0 0.0
2017-May-17 05:29N 56°10' E 015°38'0 0.0
2017-May-17 05:01N 56°10' E 015°38'4 8.0
2017-May-17 04:30N 56°06' E 015°35'815.3
2017-May-17 04:00N 56°00' E 015°43'917.3
2017-May-17 03:30N 55°56' E 015°57'917.4
2017-May-17 03:00N 55°52' E 016°10'917.5
2017-May-17 02:30N 55°46' E 016°22'917.3
2017-May-17 02:00N 55°42' E 016°35'917.3
2017-May-17 01:30N 55°37' E 016°48'917.1
2017-May-17 01:00N 55°32' E 017°01'917.0
2017-May-17 00:30N 55°27' E 017°13'917.1
2017-May-17 00:00N 55°23' E 017°26'917.2
2017-May-16 23:30N 55°18' E 017°38'917.3
2017-May-16 23:00N 55°13' E 017°51'917.2
2017-May-16 22:30N 55°08' E 018°04'917.3
2017-May-16 22:00N 55°03' E 018°16'917.3
2017-May-16 21:30N 54°59' E 018°29'917.2
2017-May-16 21:00N 54°53' E 018°40'917.5
2017-May-16 20:30N 54°46' E 018°50'816.4
2017-May-16 20:00N 54°39' E 018°57'817.0
2017-May-16 19:30N 54°32' E 018°49'714.9
2017-May-16 19:00N 54°32' E 018°36'3 6.8
2017-May-16 18:30N 54°33' E 018°30'0 0.0
2017-May-16 18:00N 54°33' E 018°30'0 0.0
2017-May-16 17:27N 54°33' E 018°30'0 0.0
2017-May-16 17:00N 54°33' E 018°30'2 4.6
2017-May-16 16:30N 54°32' E 018°34'611.7
2017-May-16 16:00N 54°32' E 018°44'816.9
2017-May-16 15:30N 54°38' E 018°55'816.5
2017-May-16 15:00N 54°46' E 018°50'1818.3
2017-May-16 14:00N 54°59' E 018°28'918.1
2017-May-16 13:30N 55°04' E 018°15'918.2
2017-May-16 13:00N 55°09' E 018°02'918.0
2017-May-16 12:30N 55°14' E 017°48'918.0
2017-May-16 12:00N 55°19' E 017°35'918.1
2017-May-16 11:30N 55°24' E 017°22'917.9
2017-May-16 11:00N 55°29' E 017°09'917.8
2017-May-16 10:30N 55°34' E 016°56'918.0
2017-May-16 10:00N 55°39' E 016°42'918.2
2017-May-16 09:30N 55°44' E 016°29'918.1
2017-May-16 09:00N 55°49' E 016°15'917.9
2017-May-16 08:30N 55°54' E 016°02'917.7
2017-May-16 08:00N 55°59' E 015°49'816.9
2017-May-16 07:30N 56°03' E 015°36'713.3
2017-May-16 07:00N 56°10' E 015°37'1 1.0
2017-May-16 06:29N 56°10' E 015°38'0 0.0
2017-May-16 05:59N 56°10' E 015°38'0 0.0
2017-May-16 05:29N 56°10' E 015°38'0 0.0
2017-May-16 05:01N 56°10' E 015°38'5 9.2
2017-May-16 04:30N 56°06' E 015°34'713.8
2017-May-16 04:00N 56°01' E 015°43'816.6
2017-May-16 03:30N 55°57' E 015°55'815.6
2017-May-16 03:00N 55°53' E 016°08'715.0
2017-May-16 02:30N 55°50' E 016°20'714.6
2017-May-16 02:00N 55°46' E 016°31'714.4
2017-May-16 01:30N 55°40' E 016°39'714.4
2017-May-16 01:00N 55°36' E 016°49'714.4
2017-May-16 00:30N 55°32' E 016°60'714.6
2017-May-16 00:00N 55°28' E 017°11'714.9
2017-May-15 23:30N 55°24' E 017°21'714.8
2017-May-15 23:00N 55°20' E 017°32'714.7
2017-May-15 22:30N 55°16' E 017°44'714.5
2017-May-15 22:00N 55°12' E 017°53'714.4
2017-May-15 21:30N 55°08' E 018°04'914.6
2017-May-15 20:54N 55°03' E 018°17'614.4
2017-May-15 20:30N 54°60' E 018°25'714.3
2017-May-15 20:00N 54°56' E 018°35'714.8
2017-May-15 19:30N 54°50' E 018°44'714.7
2017-May-15 19:00N 54°45' E 018°53'713.2
2017-May-15 18:30N 54°39' E 018°57'714.2
2017-May-15 18:00N 54°33' E 018°50'713.7
2017-May-15 17:30N 54°32' E 018°39'4 8.8
2017-May-15 17:00N 54°33' E 018°31'0 0.8
2017-May-15 16:28N 54°33' E 018°30'0 0.0
2017-May-15 15:58N 54°33' E 018°30'0 0.0
2017-May-15 15:28N 54°33' E 018°30'0 0.0
2017-May-15 14:58N 54°33' E 018°30'0 0.0
2017-May-15 14:28N 54°33' E 018°30'0 0.0
2017-May-15 13:28N 54°33' E 018°30'0 0.0
2017-May-15 12:58N 54°33' E 018°30'0 0.0
2017-May-15 12:28N 54°33' E 018°30'0 0.0
2017-May-15 11:58N 54°33' E 018°30'0 0.0
2017-May-15 11:28N 54°33' E 018°30'0 0.0
2017-May-15 10:58N 54°33' E 018°30'0 0.0
2017-May-15 10:28N 54°33' E 018°30'0 0.0
2017-May-15 09:58N 54°33' E 018°30'0 0.0
2017-May-15 09:28N 54°33' E 018°30'0 0.0
2017-May-15 08:58N 54°33' E 018°30'0 0.0
2017-May-15 08:28N 54°33' E 018°30'0 0.0
2017-May-15 07:58N 54°33' E 018°30'0 0.0
2017-May-15 07:28N 54°33' E 018°30'0 0.0
2017-May-15 07:00N 54°33' E 018°30'2 3.4
2017-May-15 06:30N 54°32' E 018°33'612.4
2017-May-15 06:00N 54°32' E 018°44'713.9
2017-May-15 05:30N 54°36' E 018°53'713.7
2017-May-15 05:00N 54°43' E 018°55'714.2
2017-May-15 04:30N 54°49' E 018°46'714.5
2017-May-15 04:00N 54°54' E 018°38'714.7
2017-May-15 03:30N 54°59' E 018°29'714.9
2017-May-15 03:00N 55°03' E 018°18'715.0
2017-May-15 02:30N 55°07' E 018°07'815.1
2017-May-15 02:00N 55°11' E 017°56'815.1
2017-May-15 01:30N 55°15' E 017°45'815.1
2017-May-15 01:00N 55°20' E 017°34'815.3
2017-May-15 00:29N 55°24' E 017°22'1414.8
2017-May-14 23:34N 55°32' E 017°02'114.9
2017-May-14 23:30N 55°32' E 017°01'714.9
2017-May-14 23:00N 55°36' E 016°50'714.9
2017-May-14 22:30N 55°40' E 016°39'714.9
2017-May-14 22:00N 55°44' E 016°27'815.1
2017-May-14 21:30N 55°48' E 016°16'714.8
2017-May-14 21:00N 55°53' E 016°05'714.0
2017-May-14 20:30N 55°56' E 015°55'714.1
2017-May-14 20:00N 56°00' E 015°44'714.4
2017-May-14 19:30N 56°04' E 015°34'611.4
2017-May-14 19:01N 56°10' E 015°37'0 0.5
2017-May-14 18:28N 56°10' E 015°38'0 0.0
2017-May-14 18:00N 56°10' E 015°38'4 7.5
2017-May-14 17:30N 56°07' E 015°35'713.4
2017-May-14 17:00N 56°01' E 015°42'816.2
2017-May-14 16:30N 55°57' E 015°54'816.5
2017-May-14 16:00N 55°52' E 016°06'816.4
2017-May-14 15:30N 55°48' E 016°18'816.1
2017-May-14 15:00N 55°43' E 016°30'815.9
2017-May-14 14:30N 55°39' E 016°42'5316.0
2017-May-14 11:13N 55°10' E 017°60'716.1
2017-May-14 10:49N 55°06' E 018°09'516.2
2017-May-14 10:29N 55°03' E 018°17'816.2
2017-May-14 10:00N 54°59' E 018°28'816.2
2017-May-14 09:31N 54°53' E 018°38'816.6
2017-May-14 09:00N 54°47' E 018°48'816.9
2017-May-14 08:30N 54°41' E 018°57'816.2
2017-May-14 08:00N 54°33' E 018°51'714.3
2017-May-14 07:30N 54°32' E 018°39'4 8.7
2017-May-14 07:00N 54°32' E 018°31'1 1.0
2017-May-14 06:25N 54°33' E 018°30'0 0.0
2017-May-14 05:58N 54°33' E 018°30'0 0.0
2017-May-14 05:30N 54°33' E 018°30'2 3.3
2017-May-14 05:00N 54°32' E 018°33'612.4
2017-May-14 04:31N 54°32' E 018°44'816.0
2017-May-14 04:01N 54°38' E 018°54'815.9
2017-May-14 03:31N 54°45' E 018°51'917.5
2017-May-14 03:00N 54°52' E 018°41'917.4
2017-May-14 02:30N 54°58' E 018°30'917.2
2017-May-14 02:00N 55°03' E 018°19'816.9
2017-May-14 01:30N 55°08' E 018°06'917.2
2017-May-14 01:01N 55°12' E 017°53'917.4
2017-May-14 00:30N 55°16' E 017°40'1117.3
2017-May-13 23:51N 55°22' E 017°23'617.5
2017-May-13 23:30N 55°26' E 017°14'917.4
2017-May-13 23:01N 55°31' E 017°02'917.4
2017-May-13 22:30N 55°36' E 016°50'917.4
2017-May-13 22:00N 55°41' E 016°37'917.4
2017-May-13 21:30N 55°46' E 016°24'917.4
2017-May-13 21:00N 55°51' E 016°11'917.3
2017-May-13 20:30N 55°55' E 015°58'817.0
2017-May-13 20:01N 55°60' E 015°45'815.4
2017-May-13 19:30N 56°04' E 015°34'611.6
2017-May-13 19:01N 56°10' E 015°38'0 0.6
2017-May-13 18:29N 56°10' E 015°38'0 0.0
2017-May-13 17:59N 56°10' E 015°38'0 0.0
2017-May-13 17:30N 56°10' E 015°38'5 9.4
2017-May-13 17:00N 56°06' E 015°34'815.3
2017-May-13 16:30N 56°00' E 015°44'816.4
2017-May-13 16:00N 55°56' E 015°56'816.5
2017-May-13 15:30N 55°51' E 016°08'816.6
2017-May-13 15:00N 55°46' E 016°20'817.0
2017-May-13 14:30N 55°42' E 016°33'1716.9
2017-May-13 13:30N 55°33' E 016°58'816.8
2017-May-13 13:00N 55°28' E 017°11'916.9
2017-May-13 12:30N 55°24' E 017°23'817.0
2017-May-13 12:00N 55°19' E 017°35'1017.0
2017-May-13 11:26N 55°13' E 017°49'816.9
2017-May-13 10:58N 55°08' E 018°00'817.0
2017-May-13 10:30N 55°04' E 018°12'817.0
2017-May-13 10:00N 55°00' E 018°25'816.7
2017-May-13 09:30N 54°55' E 018°36'817.0
2017-May-13 09:00N 54°48' E 018°46'917.2
2017-May-13 08:30N 54°42' E 018°56'815.4
2017-May-13 08:00N 54°35' E 018°53'714.9
2017-May-13 07:30N 54°32' E 018°41'510.7
2017-May-13 07:01N 54°32' E 018°32'1 1.8
2017-May-13 06:30N 54°33' E 018°30'  
Track history (hours):
 
Tides and Currents Weather Stations Pressure Air Temp Water Temp Dewpoint Dewpoint Depression Visibility Wind Speed Wind Dir Waves Ship Positions

Stena Germanica

Last reported at 2017-May-23 06:28 UTC. Time now 2017-May-23 06:56 UTC.
Position N 56°10' E 015°38'.

Length 176 m; draft 6.8 m.

Type: Ship (hazmat cat A). MMSI: 265292000.

Date/timePositionNaut miles runAvg speedWind from/ knotsBaromVisibWave heightAir tempDewpointWater temp
2017-May-23 06:28N 56°10' E 015°38'0 0.0
2017-May-23 05:58N 56°10' E 015°38'0 0.0
2017-May-23 05:28N 56°10' E 015°38'0 0.0
2017-May-23 05:00N 56°10' E 015°38'5 9.7
2017-May-23 04:30N 56°06' E 015°34'613.0
2017-May-23 04:01N 56°01' E 015°42'713.9
2017-May-23 03:31N 55°57' E 015°53'714.4
2017-May-23 03:00N 55°53' E 016°03'714.9
2017-May-23 02:31N 55°49' E 016°15'715.0
2017-May-23 02:01N 55°45' E 016°26'714.7
2017-May-23 01:31N 55°41' E 016°37'814.7
2017-May-23 00:56N 55°37' E 016°50'714.3
2017-May-23 00:27N 55°34' E 017°00'714.1
2017-May-22 23:59N 55°30' E 017°10'814.3
2017-May-22 23:23N 55°26' E 017°23'615.0
2017-May-22 22:58N 55°22' E 017°32'715.1
2017-May-22 22:28N 55°18' E 017°43'715.1
2017-May-22 22:01N 55°13' E 017°52'1015.0
2017-May-22 21:19N 55°07' E 018°07'514.9
2017-May-22 21:00N 55°05' E 018°14'714.9
2017-May-22 20:31N 55°00' E 018°24'714.7
2017-May-22 20:01N 54°56' E 018°35'714.5
2017-May-22 19:31N 54°51' E 018°43'714.5
2017-May-22 19:01N 54°45' E 018°51'714.6
2017-May-22 18:31N 54°38' E 018°57'715.0
2017-May-22 18:01N 54°32' E 018°49'714.8
2017-May-22 17:30N 54°32' E 018°36'4 7.2
2017-May-22 17:00N 54°33' E 018°30'0 0.0
2017-May-22 16:28N 54°33' E 018°30'0 0.0
2017-May-22 15:58N 54°33' E 018°30'0 0.0
2017-May-22 15:28N 54°33' E 018°30'0 0.0
2017-May-22 14:58N 54°33' E 018°30'0 0.0
2017-May-22 13:58N 54°33' E 018°30'0 0.0
2017-May-22 13:28N 54°33' E 018°30'0 0.0
2017-May-22 12:58N 54°33' E 018°30'0 0.0
2017-May-22 12:28N 54°33' E 018°30'0 0.0
2017-May-22 11:58N 54°33' E 018°30'0 0.0
2017-May-22 11:28N 54°33' E 018°30'0 0.0
2017-May-22 10:58N 54°33' E 018°30'0 0.0
2017-May-22 10:28N 54°33' E 018°30'0 0.0
2017-May-22 09:58N 54°33' E 018°30'0 0.0
2017-May-22 09:28N 54°33' E 018°30'0 0.0
2017-May-22 08:58N 54°33' E 018°30'0 0.0
2017-May-22 08:22N 54°33' E 018°30'0 0.0
2017-May-22 07:58N 54°33' E 018°30'0 0.0
2017-May-22 07:28N 54°33' E 018°30'0 0.0
2017-May-22 07:00N 54°33' E 018°30'2 3.5
2017-May-22 06:30N 54°32' E 018°33'612.2
2017-May-22 06:00N 54°32' E 018°44'613.0
2017-May-22 05:30N 54°36' E 018°53'713.6
2017-May-22 05:00N 54°43' E 018°54'714.8
2017-May-22 04:30N 54°48' E 018°46'714.9
2017-May-22 04:00N 54°54' E 018°38'714.7
2017-May-22 03:30N 54°59' E 018°29'714.9
2017-May-22 03:00N 55°03' E 018°18'815.1
2017-May-22 02:30N 55°07' E 018°07'815.2
2017-May-22 02:00N 55°12' E 017°56'815.2
2017-May-22 01:30N 55°16' E 017°44'815.5
2017-May-22 01:00N 55°20' E 017°33'715.0
2017-May-22 00:30N 55°24' E 017°22'814.5
2017-May-21 23:56N 55°28' E 017°10'814.5
2017-May-21 23:24N 55°32' E 016°58'614.6
2017-May-21 22:59N 55°36' E 016°49'715.0
2017-May-21 22:30N 55°40' E 016°38'815.1
2017-May-21 22:00N 55°44' E 016°27'714.9
2017-May-21 21:30N 55°48' E 016°16'714.9
2017-May-21 21:00N 55°52' E 016°05'815.0
2017-May-21 20:30N 55°57' E 015°54'815.0
2017-May-21 20:00N 56°01' E 015°43'714.0
2017-May-21 19:30N 56°05' E 015°34'5 9.8
2017-May-21 19:00N 56°10' E 015°38'0 0.0
2017-May-21 18:29N 56°10' E 015°38'0 0.0
2017-May-21 18:01N 56°10' E 015°38'4 8.5
2017-May-21 17:30N 56°06' E 015°34'714.6
2017-May-21 17:00N 56°01' E 015°43'816.2
2017-May-21 16:30N 55°56' E 015°55'816.4
2017-May-21 16:00N 55°52' E 016°08'816.5
2017-May-21 15:30N 55°47' E 016°20'816.4
2017-May-21 15:00N 55°43' E 016°32'816.0
2017-May-21 14:30N 55°38' E 016°43'1615.9
2017-May-21 13:30N 55°29' E 017°07'816.0
2017-May-21 13:00N 55°25' E 017°19'816.4
2017-May-21 12:30N 55°21' E 017°31'816.5
2017-May-21 12:00N 55°16' E 017°43'816.7
2017-May-21 11:30N 55°11' E 017°56'916.8
2017-May-21 10:59N 55°07' E 018°08'816.7
2017-May-21 10:30N 55°02' E 018°20'816.8
2017-May-21 10:00N 54°58' E 018°32'816.5
2017-May-21 09:30N 54°52' E 018°42'816.8
2017-May-21 09:00N 54°45' E 018°52'815.1
2017-May-21 08:30N 54°38' E 018°57'816.2
2017-May-21 08:00N 54°32' E 018°48'714.4
2017-May-21 07:31N 54°32' E 018°36'3 5.8
2017-May-21 06:55N 54°33' E 018°30'0 0.0
2017-May-21 06:28N 54°33' E 018°30'0 0.0
2017-May-21 05:55N 54°33' E 018°30'0 0.0
2017-May-21 05:30N 54°33' E 018°30'2 3.1
2017-May-21 05:00N 54°32' E 018°33'713.1
2017-May-21 04:30N 54°32' E 018°44'815.2
2017-May-21 04:00N 54°37' E 018°54'815.1
2017-May-21 03:30N 54°45' E 018°51'817.0
2017-May-21 03:00N 54°51' E 018°42'917.5
2017-May-21 02:30N 54°58' E 018°32'917.5
2017-May-21 02:00N 55°03' E 018°19'1117.5
2017-May-21 01:24N 55°09' E 018°04'2517.6
2017-May-20 23:57N 55°23' E 017°27'1316.9
2017-May-20 23:09N 55°30' E 017°07'316.8
2017-May-20 23:00N 55°32' E 017°03'816.8
2017-May-20 22:30N 55°36' E 016°51'917.3
2017-May-20 21:59N 55°41' E 016°37'917.7
2017-May-20 21:31N 55°46' E 016°25'917.5
2017-May-20 21:01N 55°50' E 016°11'917.5
2017-May-20 20:30N 55°55' E 015°58'917.3
2017-May-20 20:00N 55°60' E 015°45'816.0
2017-May-20 19:30N 56°05' E 015°34'610.4
2017-May-20 18:59N 56°10' E 015°38'0 0.5
2017-May-20 18:29N 56°10' E 015°38'0 0.0
2017-May-20 17:59N 56°10' E 015°38'0 0.0
2017-May-20 17:30N 56°10' E 015°38'5 9.5
2017-May-20 17:00N 56°06' E 015°34'714.8
2017-May-20 16:30N 56°01' E 015°44'816.1
2017-May-20 16:00N 55°56' E 015°55'816.3
2017-May-20 15:30N 55°51' E 016°07'816.4
2017-May-20 15:00N 55°47' E 016°19'816.2
2017-May-20 14:30N 55°43' E 016°32'1816.5
2017-May-20 13:26N 55°33' E 016°58'4716.8
2017-May-20 10:38N 55°07' E 018°07'216.7
2017-May-20 10:30N 55°06' E 018°10'816.5
2017-May-20 10:00N 55°02' E 018°22'816.8
2017-May-20 09:30N 54°56' E 018°34'917.2
2017-May-20 09:00N 54°50' E 018°44'917.8
2017-May-20 08:30N 54°43' E 018°54'815.9
2017-May-20 08:00N 54°35' E 018°54'816.0
2017-May-20 07:30N 54°32' E 018°41'611.1
2017-May-20 07:00N 54°32' E 018°32'1 2.1
2017-May-20 06:29N 54°33' E 018°30'0 0.0
2017-May-20 05:59N 54°33' E 018°30'0 0.0
2017-May-20 05:30N 54°33' E 018°30'2 3.1
2017-May-20 05:00N 54°32' E 018°33'612.2
2017-May-20 04:30N 54°32' E 018°43'713.7
2017-May-20 04:00N 54°36' E 018°53'713.7
2017-May-20 03:30N 54°43' E 018°54'815.1
2017-May-20 03:00N 54°49' E 018°46'715.0
2017-May-20 02:30N 54°54' E 018°37'815.1
2017-May-20 02:00N 54°60' E 018°28'715.0
2017-May-20 01:30N 55°04' E 018°17'815.0
2017-May-20 01:00N 55°08' E 018°06'714.9
2017-May-20 00:30N 55°12' E 017°55'815.1
2017-May-20 00:00N 55°16' E 017°44'3014.8
2017-May-19 21:59N 55°32' E 016°59'714.6
2017-May-19 21:30N 55°36' E 016°49'815.0
2017-May-19 21:00N 55°40' E 016°38'815.2
2017-May-19 20:30N 55°44' E 016°27'815.2
2017-May-19 20:00N 55°49' E 016°16'715.0
2017-May-19 19:30N 55°53' E 016°05'714.9
2017-May-19 19:00N 55°57' E 015°54'714.9
2017-May-19 18:30N 56°01' E 015°42'713.2
2017-May-19 18:00N 56°06' E 015°34'5 9.2
2017-May-19 17:30N 56°10' E 015°38'0 0.0
2017-May-19 17:00N 56°10' E 015°38'0 0.0
2017-May-19 16:30N 56°10' E 015°38'0 0.0
2017-May-19 16:00N 56°10' E 015°38'0 0.0
2017-May-19 15:30N 56°10' E 015°38'0 0.0
2017-May-19 15:00N 56°10' E 015°38'0 0.0
2017-May-19 14:00N 56°10' E 015°38'0 0.0
2017-May-19 13:30N 56°10' E 015°38'0 0.0
2017-May-19 13:00N 56°10' E 015°38'0 0.0
2017-May-19 12:30N 56°10' E 015°38'0 0.0
2017-May-19 12:00N 56°10' E 015°38'0 0.0
2017-May-19 11:30N 56°10' E 015°38'0 0.0
2017-May-19 11:00N 56°10' E 015°38'0 0.0
2017-May-19 10:30N 56°10' E 015°38'0 0.0
2017-May-19 10:00N 56°10' E 015°38'0 0.0
2017-May-19 09:30N 56°10' E 015°38'0 0.0
2017-May-19 09:00N 56°10' E 015°38'0 0.0
2017-May-19 08:30N 56°10' E 015°38'0 0.0
2017-May-19 08:00N 56°10' E 015°38'0 0.0
2017-May-19 07:30N 56°10' E 015°38'0 0.0
2017-May-19 07:00N 56°10' E 015°38'5 9.7
2017-May-19 06:31N 56°06' E 015°34'713.1
2017-May-19 06:00N 56°01' E 015°42'714.1
2017-May-19 05:31N 55°57' E 015°53'714.3
2017-May-19 05:00N 55°53' E 016°04'714.5
2017-May-19 04:30N 55°49' E 016°14'714.4
2017-May-19 04:01N 55°45' E 016°25'714.3
2017-May-19 03:30N 55°41' E 016°35'714.4
2017-May-19 03:00N 55°37' E 016°46'714.4
2017-May-19 02:30N 55°33' E 016°57'714.4
2017-May-19 02:00N 55°29' E 017°07'714.5
2017-May-19 01:30N 55°25' E 017°18'714.4
2017-May-19 01:00N 55°21' E 017°29'714.5
2017-May-19 00:30N 55°17' E 017°39'714.7
2017-May-19 00:00N 55°13' E 017°50'714.5
2017-May-18 23:30N 55°09' E 018°01'714.4
2017-May-18 23:00N 55°05' E 018°11'714.5
2017-May-18 22:31N 55°01' E 018°22'714.3
2017-May-18 22:01N 54°57' E 018°32'714.5
2017-May-18 21:30N 54°52' E 018°41'714.7
2017-May-18 21:00N 54°46' E 018°49'714.5
2017-May-18 20:30N 54°41' E 018°57'714.5
2017-May-18 20:00N 54°34' E 018°52'612.7
2017-May-18 19:31N 54°32' E 018°42'611.2
2017-May-18 19:00N 54°32' E 018°32'1 2.8
2017-May-18 18:30N 54°33' E 018°30'0 0.0
2017-May-18 18:00N 54°33' E 018°30'0 0.0
2017-May-18 17:30N 54°33' E 018°30'1 2.7
2017-May-18 17:00N 54°32' E 018°32'612.3
2017-May-18 16:31N 54°32' E 018°43'714.8
2017-May-18 16:01N 54°36' E 018°53'714.5
2017-May-18 15:30N 54°44' E 018°53'816.4
2017-May-18 15:01N 54°50' E 018°43'1616.0
2017-May-18 14:00N 55°02' E 018°24'815.8
2017-May-18 13:30N 55°06' E 018°13'816.0
2017-May-18 13:00N 55°10' E 018°01'3016.0
2017-May-18 11:06N 55°26' E 017°15'315.7
2017-May-18 10:54N 55°28' E 017°11'615.7
2017-May-18 10:30N 55°31' E 017°01'815.8
2017-May-18 10:01N 55°35' E 016°49'816.2
2017-May-18 09:30N 55°39' E 016°36'816.8
2017-May-18 09:00N 55°43' E 016°23'816.5
2017-May-18 08:30N 55°47' E 016°11'816.6
2017-May-18 08:01N 55°53' E 016°00'816.5
2017-May-18 07:30N 55°58' E 015°49'816.5
2017-May-18 07:01N 56°03' E 015°37'612.4
2017-May-18 06:30N 56°09' E 015°37'1 2.4
2017-May-18 05:58N 56°10' E 015°38'0 0.0
2017-May-18 05:28N 56°10' E 015°38'0 0.0
2017-May-18 05:00N 56°10' E 015°38'4 7.5
2017-May-18 04:30N 56°07' E 015°35'714.4
2017-May-18 04:00N 56°01' E 015°43'917.2
2017-May-18 03:30N 55°57' E 015°56'917.3
2017-May-18 03:00N 55°53' E 016°10'917.4
2017-May-18 02:30N 55°48' E 016°22'917.3
2017-May-18 02:00N 55°43' E 016°35'917.2
2017-May-18 01:30N 55°38' E 016°47'917.1
2017-May-18 01:00N 55°33' E 016°59'917.2
2017-May-18 00:30N 55°28' E 017°12'2617.2
2017-May-17 22:59N 55°13' E 017°50'917.1
2017-May-17 22:27N 55°08' E 018°03'817.2
2017-May-17 22:00N 55°04' E 018°15'917.2
2017-May-17 21:30N 54°59' E 018°27'917.0
2017-May-17 21:00N 54°54' E 018°39'917.4
2017-May-17 20:30N 54°48' E 018°49'917.0
2017-May-17 20:00N 54°41' E 018°58'917.3
2017-May-17 19:30N 54°33' E 018°51'815.8
2017-May-17 19:00N 54°32' E 018°38'4 8.4
2017-May-17 18:30N 54°33' E 018°30'0 0.1
2017-May-17 17:59N 54°33' E 018°30'0 0.0
2017-May-17 17:29N 54°33' E 018°30'0 0.0
2017-May-17 17:00N 54°33' E 018°30'2 3.1
2017-May-17 16:30N 54°32' E 018°33'612.9
2017-May-17 16:01N 54°32' E 018°44'815.5
2017-May-17 15:31N 54°37' E 018°54'714.7
2017-May-17 15:01N 54°44' E 018°51'1716.8
2017-May-17 14:01N 54°57' E 018°33'816.9
2017-May-17 13:31N 55°02' E 018°21'916.9
2017-May-17 12:58N 55°07' E 018°07'5116.9
2017-May-17 09:58N 55°35' E 016°53'817.2
2017-May-17 09:30N 55°40' E 016°41'917.5
2017-May-17 09:00N 55°44' E 016°28'917.5
2017-May-17 08:30N 55°49' E 016°15'917.8
2017-May-17 08:00N 55°54' E 016°01'917.7
2017-May-17 07:31N 55°59' E 015°49'917.4
2017-May-17 07:01N 56°03' E 015°35'612.3
2017-May-17 06:30N 56°10' E 015°37'1 1.0
2017-May-17 05:59N 56°10' E 015°38'0 0.0
2017-May-17 05:29N 56°10' E 015°38'0 0.0
2017-May-17 05:01N 56°10' E 015°38'4 8.0
2017-May-17 04:30N 56°06' E 015°35'815.3
2017-May-17 04:00N 56°00' E 015°43'917.3
2017-May-17 03:30N 55°56' E 015°57'917.4
2017-May-17 03:00N 55°52' E 016°10'917.5
2017-May-17 02:30N 55°46' E 016°22'917.3
2017-May-17 02:00N 55°42' E 016°35'917.3
2017-May-17 01:30N 55°37' E 016°48'917.1
2017-May-17 01:00N 55°32' E 017°01'917.0
2017-May-17 00:30N 55°27' E 017°13'917.1
2017-May-17 00:00N 55°23' E 017°26'917.2
2017-May-16 23:30N 55°18' E 017°38'917.3
2017-May-16 23:00N 55°13' E 017°51'917.2
2017-May-16 22:30N 55°08' E 018°04'917.3
2017-May-16 22:00N 55°03' E 018°16'917.3
2017-May-16 21:30N 54°59' E 018°29'917.2
2017-May-16 21:00N 54°53' E 018°40'917.5
2017-May-16 20:30N 54°46' E 018°50'816.4
2017-May-16 20:00N 54°39' E 018°57'817.0
2017-May-16 19:30N 54°32' E 018°49'714.9
2017-May-16 19:00N 54°32' E 018°36'3 6.8
2017-May-16 18:30N 54°33' E 018°30'0 0.0
2017-May-16 18:00N 54°33' E 018°30'0 0.0
2017-May-16 17:27N 54°33' E 018°30'0 0.0
2017-May-16 17:00N 54°33' E 018°30'2 4.6
2017-May-16 16:30N 54°32' E 018°34'611.7
2017-May-16 16:00N 54°32' E 018°44'816.9
2017-May-16 15:30N 54°38' E 018°55'816.5
2017-May-16 15:00N 54°46' E 018°50'1818.3
2017-May-16 14:00N 54°59' E 018°28'918.1
2017-May-16 13:30N 55°04' E 018°15'918.2
2017-May-16 13:00N 55°09' E 018°02'918.0
2017-May-16 12:30N 55°14' E 017°48'918.0
2017-May-16 12:00N 55°19' E 017°35'918.1
2017-May-16 11:30N 55°24' E 017°22'917.9
2017-May-16 11:00N 55°29' E 017°09'917.8
2017-May-16 10:30N 55°34' E 016°56'918.0
2017-May-16 10:00N 55°39' E 016°42'918.2
2017-May-16 09:30N 55°44' E 016°29'918.1
2017-May-16 09:00N 55°49' E 016°15'917.9
2017-May-16 08:30N 55°54' E 016°02'917.7
2017-May-16 08:00N 55°59' E 015°49'816.9
2017-May-16 07:30N 56°03' E 015°36'713.3
2017-May-16 07:00N 56°10' E 015°37'1 1.0
2017-May-16 06:29N 56°10' E 015°38'0 0.0
2017-May-16 05:59N 56°10' E 015°38'0 0.0
2017-May-16 05:29N 56°10' E 015°38'0 0.0
2017-May-16 05:01N 56°10' E 015°38'5 9.2
2017-May-16 04:30N 56°06' E 015°34'713.8
2017-May-16 04:00N 56°01' E 015°43'816.6
2017-May-16 03:30N 55°57' E 015°55'815.6
2017-May-16 03:00N 55°53' E 016°08'715.0
2017-May-16 02:30N 55°50' E 016°20'714.6
2017-May-16 02:00N 55°46' E 016°31'714.4
2017-May-16 01:30N 55°40' E 016°39'714.4
2017-May-16 01:00N 55°36' E 016°49'714.4
2017-May-16 00:30N 55°32' E 016°60'714.6
2017-May-16 00:00N 55°28' E 017°11'714.9
2017-May-15 23:30N 55°24' E 017°21'714.8
2017-May-15 23:00N 55°20' E 017°32'714.7
2017-May-15 22:30N 55°16' E 017°44'714.5
2017-May-15 22:00N 55°12' E 017°53'714.4
2017-May-15 21:30N 55°08' E 018°04'914.6
2017-May-15 20:54N 55°03' E 018°17'614.4
2017-May-15 20:30N 54°60' E 018°25'714.3
2017-May-15 20:00N 54°56' E 018°35'714.8
2017-May-15 19:30N 54°50' E 018°44'714.7
2017-May-15 19:00N 54°45' E 018°53'713.2
2017-May-15 18:30N 54°39' E 018°57'714.2
2017-May-15 18:00N 54°33' E 018°50'713.7
2017-May-15 17:30N 54°32' E 018°39'4 8.8
2017-May-15 17:00N 54°33' E 018°31'0 0.8
2017-May-15 16:28N 54°33' E 018°30'0 0.0
2017-May-15 15:58N 54°33' E 018°30'0 0.0
2017-May-15 15:28N 54°33' E 018°30'0 0.0
2017-May-15 14:58N 54°33' E 018°30'0 0.0
2017-May-15 14:28N 54°33' E 018°30'0 0.0
2017-May-15 13:28N 54°33' E 018°30'0 0.0
2017-May-15 12:58N 54°33' E 018°30'0 0.0
2017-May-15 12:28N 54°33' E 018°30'0 0.0
2017-May-15 11:58N 54°33' E 018°30'0 0.0
2017-May-15 11:28N 54°33' E 018°30'0 0.0
2017-May-15 10:58N 54°33' E 018°30'0 0.0
2017-May-15 10:28N 54°33' E 018°30'0 0.0
2017-May-15 09:58N 54°33' E 018°30'0 0.0
2017-May-15 09:28N 54°33' E 018°30'0 0.0
2017-May-15 08:58N 54°33' E 018°30'0 0.0
2017-May-15 08:28N 54°33' E 018°30'0 0.0
2017-May-15 07:58N 54°33' E 018°30'0 0.0
2017-May-15 07:28N 54°33' E 018°30'0 0.0
2017-May-15 07:00N 54°33' E 018°30'2 3.4
2017-May-15 06:30N 54°32' E 018°33'612.4
2017-May-15 06:00N 54°32' E 018°44'713.9
2017-May-15 05:30N 54°36' E 018°53'713.7
2017-May-15 05:00N 54°43' E 018°55'714.2
2017-May-15 04:30N 54°49' E 018°46'714.5
2017-May-15 04:00N 54°54' E 018°38'714.7
2017-May-15 03:30N 54°59' E 018°29'714.9
2017-May-15 03:00N 55°03' E 018°18'715.0
2017-May-15 02:30N 55°07' E 018°07'815.1
2017-May-15 02:00N 55°11' E 017°56'815.1
2017-May-15 01:30N 55°15' E 017°45'815.1
2017-May-15 01:00N 55°20' E 017°34'815.3
2017-May-15 00:29N 55°24' E 017°22'1414.8
2017-May-14 23:34N 55°32' E 017°02'114.9
2017-May-14 23:30N 55°32' E 017°01'714.9
2017-May-14 23:00N 55°36' E 016°50'714.9
2017-May-14 22:30N 55°40' E 016°39'714.9
2017-May-14 22:00N 55°44' E 016°27'815.1
2017-May-14 21:30N 55°48' E 016°16'714.8
2017-May-14 21:00N 55°53' E 016°05'714.0
2017-May-14 20:30N 55°56' E 015°55'714.1
2017-May-14 20:00N 56°00' E 015°44'714.4
2017-May-14 19:30N 56°04' E 015°34'611.4
2017-May-14 19:01N 56°10' E 015°37'0 0.5
2017-May-14 18:28N 56°10' E 015°38'0 0.0
2017-May-14 18:00N 56°10' E 015°38'4 7.5
2017-May-14 17:30N 56°07' E 015°35'713.4
2017-May-14 17:00N 56°01' E 015°42'816.2
2017-May-14 16:30N 55°57' E 015°54'816.5
2017-May-14 16:00N 55°52' E 016°06'816.4
2017-May-14 15:30N 55°48' E 016°18'816.1
2017-May-14 15:00N 55°43' E 016°30'815.9
2017-May-14 14:30N 55°39' E 016°42'5316.0
2017-May-14 11:13N 55°10' E 017°60'716.1
2017-May-14 10:49N 55°06' E 018°09'516.2
2017-May-14 10:29N 55°03' E 018°17'816.2
2017-May-14 10:00N 54°59' E 018°28'816.2
2017-May-14 09:31N 54°53' E 018°38'816.6
2017-May-14 09:00N 54°47' E 018°48'816.9
2017-May-14 08:30N 54°41' E 018°57'816.2
2017-May-14 08:00N 54°33' E 018°51'714.3
2017-May-14 07:30N 54°32' E 018°39'4 8.7
2017-May-14 07:00N 54°32' E 018°31'1 1.0
2017-May-14 06:25N 54°33' E 018°30'0 0.0
2017-May-14 05:58N 54°33' E 018°30'0 0.0
2017-May-14 05:30N 54°33' E 018°30'2 3.3
2017-May-14 05:00N 54°32' E 018°33'612.4
2017-May-14 04:31N 54°32' E 018°44'816.0
2017-May-14 04:01N 54°38' E 018°54'815.9
2017-May-14 03:31N 54°45' E 018°51'917.5
2017-May-14 03:00N 54°52' E 018°41'917.4
2017-May-14 02:30N 54°58' E 018°30'917.2
2017-May-14 02:00N 55°03' E 018°19'816.9
2017-May-14 01:30N 55°08' E 018°06'917.2
2017-May-14 01:01N 55°12' E 017°53'917.4
2017-May-14 00:30N 55°16' E 017°40'1117.3
2017-May-13 23:51N 55°22' E 017°23'617.5
2017-May-13 23:30N 55°26' E 017°14'917.4
2017-May-13 23:01N 55°31' E 017°02'917.4
2017-May-13 22:30N 55°36' E 016°50'917.4
2017-May-13 22:00N 55°41' E 016°37'917.4
2017-May-13 21:30N 55°46' E 016°24'917.4
2017-May-13 21:00N 55°51' E 016°11'917.3
2017-May-13 20:30N 55°55' E 015°58'817.0
2017-May-13 20:01N 55°60' E 015°45'815.4
2017-May-13 19:30N 56°04' E 015°34'611.6
2017-May-13 19:01N 56°10' E 015°38'0 0.6
2017-May-13 18:29N 56°10' E 015°38'0 0.0
2017-May-13 17:59N 56°10' E 015°38'0 0.0
2017-May-13 17:30N 56°10' E 015°38'5 9.4
2017-May-13 17:00N 56°06' E 015°34'815.3
2017-May-13 16:30N 56°00' E 015°44'816.4
2017-May-13 16:00N 55°56' E 015°56'816.5
2017-May-13 15:30N 55°51' E 016°08'816.6
2017-May-13 15:00N 55°46' E 016°20'817.0
2017-May-13 14:30N 55°42' E 016°33'1716.9
2017-May-13 13:30N 55°33' E 016°58'816.8
2017-May-13 13:00N 55°28' E 017°11'916.9
2017-May-13 12:30N 55°24' E 017°23'817.0
2017-May-13 12:00N 55°19' E 017°35'1017.0
2017-May-13 11:26N 55°13' E 017°49'816.9
2017-May-13 10:58N 55°08' E 018°00'817.0
2017-May-13 10:30N 55°04' E 018°12'817.0
2017-May-13 10:00N 55°00' E 018°25'816.7
2017-May-13 09:30N 54°55' E 018°36'817.0
2017-May-13 09:00N 54°48' E 018°46'917.2
2017-May-13 08:30N 54°42' E 018°56'815.4
2017-May-13 08:00N 54°35' E 018°53'714.9
2017-May-13 07:30N 54°32' E 018°41'510.7
2017-May-13 07:01N 54°32' E 018°32'1 1.8
2017-May-13 06:30N 54°33' E 018°30'  

Dump ship's entire track history